Latest Coastal Weather Observations for Cape Grim

IDT60701

Issued at 6:52 pm EST Monday 26 June 2017 (issued every 10 minutes, with the page automatically refreshed every 10 minutes)

About coastal observations | Map of coastal stations | Coastal observations for TAS | Marine services | Other Formats
Station Details ID: 091331 Name: CAPE GRIM Lat: -40.68 Lon: 144.69 Height: 86.0 m
Data from the previous 72 hours. | See also: Recent months at Cape Grim
Date/Time
EST
Temp
°C
Wind Pressure Rain since
9am
mm
Weather Cloud Vis
km
Sea
Height
m
Swell
Dir  Spd
kts
Gust
kts
hPa Trend Height
m
Period
s
Dir
26/06:30pm 8.4 S 3 6 1023.9 - 0.0 - Partly cloudy - - - - -
26/06:00pm 9.3 S 6 10 1023.7 - 0.0 - Cloudy - - - - -
26/05:30pm 9.3 SSW 10 14 1023.3 - 0.0 - Partly cloudy - - - - -
26/05:00pm 10.0 SSW 9 13 1023.0 - 0.0 - Partly cloudy - - - - -
26/04:30pm 10.2 SW 11 15 1022.9 - 0.0 - - - - - - -
26/04:00pm 9.9 SW 13 18 1022.8 - 0.0 - Partly cloudy - - - - -
26/03:30pm 10.4 SW 13 16 1022.7 - 0.0 - Partly cloudy - - - - -
26/03:00pm 10.0 SSW 12 18 1022.5 - 0.0 - Cloudy - - - - -
26/02:30pm 10.4 SW 12 15 1022.2 - 0.0 - Partly cloudy - - - - -
26/02:00pm 10.3 SW 14 17 1022.1 - 0.0 - Partly cloudy - - - - -
26/01:30pm 10.4 SW 15 18 1022.0 - 0.0 - Partly cloudy - - - - -
26/01:00pm 10.5 SW 14 19 1022.0 - 0.0 - Partly cloudy - - - - -
26/12:30pm 10.5 SW 15 19 1022.0 - 0.0 - - - - - - -
26/12:00pm 10.2 SW 17 21 1022.0 - 0.0 - Partly cloudy - - - - -
26/11:30am 10.5 SW 12 16 1022.2 - 0.0 - Partly cloudy - - - - -
26/11:00am 9.8 SW 12 17 1022.2 - 0.0 - Partly cloudy - - - - -
26/10:30am 10.1 SW 13 18 1022.2 - 0.0 - Partly cloudy - - - - -
26/10:00am 9.5 SSW 15 23 1021.8 - 0.0 - Partly cloudy - - - - -
26/09:30am 9.4 SW 19 27 1021.4 - 0.0 - Partly cloudy - - - - -
26/09:23am 10.2 SW 17 27 1021.2 - 0.0 - Partly cloudy - - - - -
26/09:00am 10.2 SW 17 23 1020.9 - 1.4 - Partly cloudy - - - - -
26/08:30am 10.2 SW 17 22 1020.4 - 1.4 - Partly cloudy - - - - -
26/08:00am 10.2 SW 18 22 1019.9 - 1.4 - Partly cloudy - - - - -
26/07:30am 10.2 SW 19 24 1019.5 - 1.4 - Cloudy - - - - -
26/07:00am 10.3 SW 19 24 1019.2 - 1.4 - Partly cloudy - - - - -
26/06:41am 10.2 SW 19 30 1018.8 - 1.4 - Partly cloudy - - - - -
26/06:30am 9.8 SW 19 25 1018.7 - 1.4 - Partly cloudy - - - - -
26/06:00am 10.0 SW 19 31 1018.2 - 1.4 - Mostly cloudy - - - - -
26/05:30am 9.7 SW 19 27 1017.8 - 1.4 - Partly cloudy - - - - -
26/05:28am 9.7 SW 20 30 1017.8 - 1.4 - Partly cloudy - - - - -
26/05:00am 10.0 SW 19 25 1017.8 - 1.4 - Partly cloudy - - - - -
26/04:30am 9.9 SW 20 24 1017.5 - 1.4 - Partly cloudy - - - - -
26/04:00am 9.3 SW 20 27 1017.5 - 1.4 - Partly cloudy - - - - -
26/03:30am 9.7 SW 18 24 1017.2 - 1.4 - Partly cloudy - - - - -
26/03:00am 10.1 SW 19 24 1016.9 - 1.4 - Cloudy - - - - -
26/02:30am 9.8 SW 21 27 1016.7 - 1.4 - Partly cloudy - - - - -
26/02:00am 10.0 SW 22 27 1016.4 - 1.4 - Partly cloudy - - - - -
26/01:37am 10.0 SW 17 27 1016.0 - 1.4 - Partly cloudy - - - - -
26/01:30am 9.6 SW 16 25 1016.0 - 1.4 - Partly cloudy - - - - -
26/01:25am 9.4 SW 20 30 1016.0 - 1.4 - Partly cloudy - - - - -
26/01:00am 9.9 SW 21 27 1015.7 - 1.4 - Partly cloudy - - - - -
26/12:48am 10.1 SW 20 30 1015.7 - 1.4 - Partly cloudy - - - - -
26/12:30am 10.1 SW 23 28 1015.5 - 1.4 - Partly cloudy - - - - -
26/12:00am 9.6 SW 25 35 1015.2 - 1.4 - Cloudy - - - - -
 
Date/Time
EST
Temp
°C
Wind Pressure Rain since
9am
mm
Weather Cloud Vis
km
Sea
Height
m
Swell
Dir  Spd
kts
Gust
kts
hPa Trend Height
m
Period
s
Dir
25/11:48pm 10.2 SW 24 34 1015.1 - 1.4 - Partly cloudy - - - - -
25/11:30pm 9.9 SW 26 33 1015.0 - 1.4 - Partly cloudy - - - - -
25/11:00pm 9.9 SW 22 27 1014.8 - 1.4 - Partly cloudy - - - - -
25/10:41pm 9.8 SW 27 37 1014.4 - 1.4 - Partly cloudy - - - - -
25/10:30pm 10.3 SW 24 31 1014.3 - 1.4 - Partly cloudy - - - - -
25/10:06pm 9.8 SW 27 37 1014.1 - 1.4 - Partly cloudy - - - - -
25/10:00pm 9.3 SW 30 38 1014.1 - 1.4 - Partly cloudy - - - - -
25/09:30pm 10.5 SW 24 34 1013.6 - 1.4 - Partly cloudy - - - - -
25/09:12pm 10.0 SW 28 37 1013.4 - 1.4 - Partly cloudy - - - - -
25/09:00pm 10.6 SW 30 37 1013.2 - 1.4 Recent precip. Partly cloudy - - - - -
25/08:43pm 10.3 SW 25 40 1013.0 - 1.4 - Partly cloudy - - - - -
25/08:30pm 9.9 WSW 19 32 1013.0 - 1.2 - Partly cloudy - - - - -
25/08:00pm 11.0 SW 21 36 1012.5 - 1.2 - Partly cloudy - - - - -
25/07:30pm 11.2 SW 26 37 1012.0 - 1.2 - Partly cloudy - - - - -
25/07:00pm 11.0 SW 24 35 1011.3 - 1.2 - Partly cloudy - - - - -
25/06:30pm 11.0 SW 20 34 1010.8 - 1.2 - Partly cloudy - - - - -
25/06:00pm 11.2 SW 23 37 1010.4 - 1.2 - Mostly clear - - - - -
25/05:30pm 11.1 SW 24 37 1009.9 - 1.2 - Partly cloudy - - - - -
25/05:00pm 11.2 SW 21 35 1009.4 - 1.2 - Partly cloudy - - - - -
25/04:30pm 10.9 WSW 18 33 1009.2 - 1.2 - Partly cloudy - - - - -
25/04:00pm 11.5 WSW 19 30 1008.6 - 1.2 - Partly cloudy - - - - -
25/03:30pm 11.5 WSW 19 34 1008.2 - 1.2 - Partly cloudy - - - - -
25/03:00pm 11.7 WSW 19 32 1007.7 - 1.2 - Partly cloudy - - - - -
25/02:30pm 11.6 WSW 19 34 1007.6 - 1.2 - Partly cloudy - - - - -
25/02:00pm 11.0 WSW 21 37 1007.6 - 1.2 - Partly cloudy - - - - -
25/01:34pm 10.9 SW 29 39 1007.7 - 1.0 - Partly cloudy - - - - -
25/01:30pm 10.8 SW 31 39 1007.5 - 1.0 - Partly cloudy - - - - -
25/01:24pm 10.6 WSW 27 39 1007.4 - 1.0 - Partly cloudy - - - - -
25/01:00pm 11.6 WSW 21 35 1007.3 - 1.0 - Partly cloudy - - - - -
25/12:30pm 11.2 W 25 35 1007.4 - 1.0 - Partly cloudy - - - - -
25/12:16pm 11.4 W 25 35 1007.4 - 0.8 - Partly cloudy - - - - -
25/12:00pm 11.5 WNW 27 33 1007.6 - 0.6 - Cloudy - - - - -
25/11:30am 11.5 WNW 26 36 1008.1 - 0.6 - Partly cloudy - - - - -
25/11:28am 11.5 WNW 26 36 1008.1 - 0.6 - Partly cloudy - - - - -
25/11:00am 11.3 WNW 27 35 1008.4 - 0.6 - Partly cloudy - - - - -
25/10:30am 11.2 W 24 33 1008.7 - 0.4 - Partly cloudy - - - - -
25/10:00am 10.5 WNW 27 36 1008.8 - 0.4 - Partly cloudy - - - - -
25/09:32am 11.0 W 27 40 1008.8 - 0.2 - Partly cloudy - - - - -
25/09:30am 11.5 WNW 27 35 1008.9 - 0.0 - Partly cloudy - - - - -
25/09:09am 11.4 WNW 24 35 1008.8 - 0.0 - Partly cloudy - - - - -
25/09:00am 11.4 W 26 33 1008.9 - 6.6 - Cloudy - - - - -
25/08:37am 11.0 WNW 24 36 1008.9 - 6.6 - Partly cloudy - - - - -
25/08:30am 11.0 W 23 29 1009.0 - 6.6 - Partly cloudy - - - - -
25/08:05am 10.4 W 24 34 1009.1 - 6.6 - Partly cloudy - - - - -
25/08:00am 10.3 W 24 30 1009.2 - 6.6 - Partly cloudy - - - - -
25/07:43am 10.4 W 23 33 1009.2 - 6.2 - Partly cloudy - - - - -
25/07:30am 10.2 W 25 30 1009.2 - 6.2 - Partly cloudy - - - - -
25/07:08am 10.1 W 21 31 1009.2 - 6.0 - Partly cloudy - - - - -
25/07:00am 10.0 W 21 27 1009.4 - 6.0 - Partly cloudy - - - - -
25/06:30am 10.2 W 24 30 1009.3 - 5.8 - Partly cloudy - - - - -
25/06:00am 10.0 W 21 31 1009.4 - 5.8 Recent precip. Cloudy - - - - -
25/05:42am 9.7 W 23 33 1009.5 - 5.8 - Partly cloudy - - - - -
25/05:30am 9.5 W 27 35 1009.5 - 5.8 - Partly cloudy - - - - -
25/05:00am 9.7 WNW 23 34 1009.4 - 5.4 - Partly cloudy - - - - -
25/04:40am 9.7 W 20 30 1009.8 - 5.2 - Partly cloudy - - - - -
25/04:30am 9.4 W 23 31 1009.8 - 5.2 - Partly cloudy - - - - -
25/04:28am 9.1 W 23 32 1009.9 - 5.2 - Partly cloudy - - - - -
25/04:20am 9.6 WNW 22 32 1009.9 - 5.0 - Partly cloudy - - - - -
25/04:17am 9.4 WNW 21 29 1010.0 - 4.8 - Partly cloudy - - - - -
25/04:00am 9.5 W 19 25 1010.2 - 4.4 - Partly cloudy - - - - -
25/03:30am 9.8 WNW 24 32 1010.5 - 4.4 - Partly cloudy - - - - -
25/03:03am 9.3 WNW 24 34 1010.9 - 4.4 - Partly cloudy - - - - -
25/03:00am 9.3 WNW 25 34 1010.9 - 4.4 Recent precip. Cloudy - - - - -
25/02:57am 10.1 WNW 23 33 1010.8 - 4.4 - Partly cloudy - - - - -
25/02:30am 9.3 WNW 20 28 1010.9 - 4.4 - Partly cloudy - - - - -
25/02:00am 9.4 W 21 26 1011.1 - 4.2 - Partly cloudy - - - - -
25/01:30am 9.3 W 19 31 1011.4 - 3.8 - Partly cloudy - - - - -
25/01:00am 9.3 W 21 32 1011.5 - 3.8 - Partly cloudy - - - - -
25/12:58am 9.4 W 19 32 1011.5 - 3.6 - Partly cloudy - - - - -
25/12:30am 9.3 WNW 17 24 1011.6 - 3.6 - Partly cloudy - - - - -
25/12:06am 10.2 W 19 30 1011.8 - 3.4 - Partly cloudy - - - - -
25/12:00am 9.9 W 19 25 1011.9 - 3.4 - Cloudy - - - - -
 
Date/Time
EST
Temp
°C
Wind Pressure Rain since
9am
mm
Weather Cloud Vis
km
Sea
Height
m
Swell
Dir  Spd
kts
Gust
kts
hPa Trend Height
m
Period
s
Dir
24/11:30pm 9.9 W 21 27 1012.1 - 3.4 - Partly cloudy - - - - -
24/11:15pm 9.2 W 17 29 1012.4 - 3.4 - Partly cloudy - - - - -
24/11:00pm 9.3 W 16 22 1012.4 - 3.4 - Partly cloudy - - - - -
24/10:44pm 9.5 W 16 26 1012.6 - 3.2 - Partly cloudy - - - - -
24/10:30pm 9.4 WNW 22 30 1012.7 - 3.2 - Partly cloudy - - - - -
24/10:11pm 10.1 W 19 30 1012.9 - 2.8 - Partly cloudy - - - - -
24/10:00pm 9.8 W 15 21 1013.0 - 2.8 - Partly cloudy - - - - -
24/09:33pm 9.1 W 19 29 1013.2 - 2.8 - Partly cloudy - - - - -
24/09:30pm 9.3 W 21 29 1013.2 - 2.8 - Partly cloudy - - - - -
24/09:11pm 9.1 W 19 29 1013.3 - 2.8 - Partly cloudy - - - - -
24/09:00pm 9.9 W 21 30 1013.3 - 2.8 - Cloudy - - - - -
24/08:58pm 9.8 W 20 30 1013.3 - 2.8 - Partly cloudy - - - - -
24/08:30pm 10.0 W 18 26 1013.5 - 2.8 - Partly cloudy - - - - -
24/08:08pm 9.8 W 15 25 1013.5 - 2.8 - Partly cloudy - - - - -
24/08:00pm 10.1 W 17 25 1013.6 - 2.8 - Partly cloudy - - - - -
24/07:30pm 10.0 W 15 22 1013.6 - 2.8 - Partly cloudy - - - - -
24/07:00pm 8.7 W 20 31 1013.8 - 2.8 - Partly cloudy - - - - -
24/06:30pm 9.0 W 17 31 1013.7 - 2.6 - Partly cloudy - - - - -
24/06:29pm 9.5 W 17 31 1013.6 - 2.6 - Partly cloudy - - - - -
24/06:00pm 9.7 W 15 24 1013.7 - 2.6 - Mostly cloudy - - - - -
24/05:30pm 10.2 W 17 28 1013.6 - 2.6 - Partly cloudy - - - - -
24/05:00pm 8.7 W 14 24 1013.7 - 2.6 - Partly cloudy - - - - -
24/04:41pm 9.6 WSW 15 28 1013.6 - 2.2 - Partly cloudy - - - - -
24/04:30pm 9.9 W 16 25 1013.7 - 2.2 - Partly cloudy - - - - -
24/04:26pm 9.7 W 15 25 1013.6 - 2.2 - Partly cloudy - - - - -
24/04:00pm 8.6 WSW 13 24 1013.7 - 2.2 - Partly cloudy - - - - -
24/03:43pm 8.9 W 15 25 1013.8 - 1.4 - Partly cloudy - - - - -
24/03:30pm 9.5 WSW 13 22 1013.7 - 1.4 - Partly cloudy - - - - -
24/03:00pm 8.7 WSW 15 25 1013.9 - 1.2 Rain Cloudy - - - - -
24/02:30pm 9.6 W 14 21 1013.7 - 0.8 - Partly cloudy - - - - -
24/02:00pm 9.4 W 16 28 1013.7 - 0.4 - Partly cloudy - - - - -
24/01:37pm 9.7 W 18 28 1013.7 - 0.2 - Partly cloudy - - - - -
24/01:30pm 10.0 W 16 23 1013.8 - 0.2 - Partly cloudy - - - - -
24/01:08pm 9.9 W 15 26 1013.9 - 0.2 - Partly cloudy - - - - -
24/01:00pm 10.4 W 13 24 1013.9 - 0.2 - Partly cloudy - - - - -
24/12:33pm 9.9 WSW 16 26 1014.3 - 0.2 - Partly cloudy - - - - -
24/12:30pm 9.5 W 16 25 1014.3 - 0.2 - Partly cloudy - - - - -
24/12:10pm 9.6 SW 16 26 1014.5 - 0.2 - Partly cloudy - - - - -
24/12:00pm 9.5 SW 19 27 1014.5 - 0.2 - Cloudy - - - - -
24/11:30am 9.8 WSW 15 26 1014.7 - 0.2 - Partly cloudy - - - - -
24/11:02am 9.8 WSW 15 25 1015.1 - 0.2 - Partly cloudy - - - - -
24/11:00am 10.0 WSW 15 24 1015.0 - 0.2 - Partly cloudy - - - - -
24/10:30am 9.0 WSW 13 24 1015.4 - 0.2 - Partly cloudy - - - - -
24/10:00am 9.4 SW 18 28 1015.1 - 0.2 - Partly cloudy - - - - -
24/09:35am 9.0 SW 15 27 1014.9 - 0.2 - Partly cloudy - - - - -
24/09:30am 8.7 WSW 15 23 1015.0 - 0.2 - Partly cloudy - - - - -
24/09:00am 9.2 WSW 18 29 1014.8 - 4.8 Recent precip. Mostly cloudy - - - - -
24/08:30am 8.4 WSW 16 30 1014.6 - 4.8 - Partly cloudy - - - - -
24/08:00am 9.1 SW 17 27 1014.2 - 4.4 - - - - - - -
24/07:43am 8.8 SW 22 32 1014.1 - 4.4 - Partly cloudy - - - - -
24/07:30am 8.7 SW 25 32 1014.0 - 4.4 - Partly cloudy - - - - -
24/07:00am 8.8 SW 26 36 1013.7 - 4.4 - Partly cloudy - - - - -
24/06:30am 9.1 SW 19 29 1013.3 - 4.4 - Partly cloudy - - - - -
24/06:15am 8.6 SW 23 30 1013.2 - 4.4 - Partly cloudy - - - - -
24/06:13am 8.9 SW 25 32 1013.3 - 4.4 - Partly cloudy - - - - -
24/06:01am 8.7 WSW 21 37 1013.1 - 4.4 - Partly cloudy - - - - -
24/06:00am 9.1 WSW 19 36 1013.1 - 4.4 Rain Cloudy - - - - -
24/05:30am 8.8 WSW 19 29 1013.0 - 4.2 - Partly cloudy - - - - -
24/05:00am 8.6 SW 20 34 1012.8 - 4.2 - Partly cloudy - - - - -
24/04:42am 8.7 SW 21 31 1012.8 - 4.2 - Partly cloudy - - - - -
24/04:30am 8.6 SW 25 32 1012.8 - 4.2 - Partly cloudy - - - - -
24/04:00am 8.7 SW 22 34 1012.7 - 4.2 - Partly cloudy - - - - -
24/03:30am 7.2 SW 26 37 1012.9 - 4.2 - Partly cloudy - - - - -
24/03:17am 8.5 SW 27 37 1012.7 - 4.2 - Partly cloudy - - - - -
24/03:07am 8.5 SW 24 37 1012.7 - 4.2 - Partly cloudy - - - - -
24/03:03am 9.4 SW 21 31 1012.5 - 4.2 - Partly cloudy - - - - -
24/03:00am 9.4 SW 21 30 1012.5 - 4.2 - Mostly cloudy - - - - -
24/02:39am 9.2 SW 21 31 1012.4 - 4.2 - Partly cloudy - - - - -
24/02:30am 9.1 SW 25 33 1012.3 - 4.2 - - - - - - -
24/02:09am 9.2 SW 21 31 1012.3 - 4.2 - Partly cloudy - - - - -
24/02:00am 8.9 SW 25 33 1012.3 - 4.2 - Partly cloudy - - - - -
24/01:34am 9.1 SW 25 35 1011.9 - 4.2 - Partly cloudy - - - - -
24/01:30am 9.0 SW 26 34 1011.9 - 4.2 - Partly cloudy - - - - -
24/01:01am 8.8 SW 25 35 1011.7 - 4.2 - - - - - - -
24/01:00am 8.7 SW 26 35 1011.7 - 4.2 - - - - - - -
24/12:55am 8.7 SW 25 35 1011.7 - 4.2 - Partly cloudy - - - - -
24/12:30am 8.7 SW 27 34 1011.8 - 4.2 - - - - - - -
24/12:00am 8.1 SW 33 46 1011.8 - 4.2 Recent precip. Partly cloudy - - - - -
 
Date/Time
EST
Temp
°C
Wind Pressure Rain since
9am
mm
Weather Cloud Vis
km
Sea
Height
m
Swell
Dir  Spd
kts
Gust
kts
hPa Trend Height
m
Period
s
Dir
23/11:50pm 8.9 SW 30 40 1011.5 - 4.2 - Partly cloudy - - - - -
23/11:37pm 8.0 SW 30 41 1011.4 - 4.2 - Partly cloudy - - - - -
23/11:30pm 8.3 SW 23 41 1011.4 - 4.2 - Partly cloudy - - - - -
23/11:00pm 7.6 SW 24 34 1011.3 - 4.0 - Partly cloudy - - - - -
23/10:58pm 8.6 SW 25 34 1011.5 - 4.0 - Partly cloudy - - - - -
23/10:38pm 8.3 SW 24 44 1011.1 - 4.0 - Partly cloudy - - - - -
23/10:30pm 9.1 WSW 18 32 1011.0 - 4.0 - Partly cloudy - - - - -
23/10:12pm 9.1 SW 25 38 1010.7 - 4.0 - Partly cloudy - - - - -
23/10:11pm 9.1 SW 26 38 1010.7 - 4.0 - Partly cloudy - - - - -
23/10:01pm 9.2 SW 29 41 1010.6 - 4.0 - Partly cloudy - - - - -
23/10:00pm 9.4 SW 28 39 1010.6 - 4.0 - Partly cloudy - - - - -
23/09:59pm 9.2 SW 27 38 1010.5 - 4.0 - Partly cloudy - - - - -
23/09:51pm 9.4 SW 25 35 1010.6 - 4.0 - Partly cloudy - - - - -
23/09:30pm 8.9 SW 31 39 1010.7 - 4.0 - Partly cloudy - - - - -
23/09:00pm 9.0 SW 26 38 1010.3 - 4.0 - Mostly cloudy - - - - -
23/08:30pm 9.4 SW 31 41 1009.8 - 4.0 - Partly cloudy - - - - -
23/08:00pm 9.6 SW 30 41 1009.1 - 4.0 - Partly cloudy - - - - -
23/07:30pm 9.8 SW 27 38 1008.9 - 4.0 - Partly cloudy - - - - -
23/07:15pm 9.6 SW 26 41 1008.6 - 4.0 - Partly cloudy - - - - -
23/07:00pm 9.2 SW 33 43 1008.6 - 4.0 - Partly cloudy - - - - -

Other Formats:

Comma delimited format used in spreadsheet applications
http://www.bom.gov.au/fwo/IDT60701/IDT60701.95954.axf

JavaScript Object Notation format (JSON) in row-major order
http://www.bom.gov.au/fwo/IDT60701/IDT60701.95954.json